Time;durP1;ratioP1;P1;durP2;ratioP2;P2;SDS_P1;SDS_P2;PMS_P1;PMS_P2;Temp;Humidity;BMP_temperature;BMP_pressure;BME280_temperature;BME280_humidity;BME280_pressure;Samples;Min_cycle;Max_cycle;Signal;HPM_P1;HPM_P2
2022/12/06 00:01:50;;;;;;;25.05;14.48;;;;;;;;;;5073129;28;20458;-56
2022/12/06 00:04:15;;;;;;;23.13;12.68;;;;;;;;;;5078039;28;20028;-56
2022/12/06 00:06:41;;;;;;;25.20;13.48;;;;;;;;;;5071366;28;20055;-57
2022/12/06 00:09:07;;;;;;;25.48;12.80;;;;;;;;;;5068002;28;20371;-56
2022/12/06 00:11:34;;;;;;;22.65;13.10;;;;;;;;;;5070010;28;20474;-57
2022/12/06 00:14:00;;;;;;;22.05;12.75;;;;;;;;;;5070451;28;20550;-56
2022/12/06 00:16:25;;;;;;;24.08;13.13;;;;;;;;;;5077927;28;20467;-57
2022/12/06 00:18:51;;;;;;;24.85;14.18;;;;;;;;;;5066044;28;20025;-57
2022/12/06 00:21:16;;;;;;;21.90;12.32;;;;;;;;;;5076096;28;20039;-57
2022/12/06 00:23:42;;;;;;;18.23;10.43;;;;;;;;;;5075755;28;20024;-55
2022/12/06 00:26:07;;;;;;;22.08;11.55;;;;;;;;;;5072975;28;20029;-56
2022/12/06 00:28:33;;;;;;;20.27;11.65;;;;;;;;;;5072085;28;20473;-57
2022/12/06 00:30:59;;;;;;;21.83;11.70;;;;;;;;;;5076866;28;20036;-56
2022/12/06 00:33:24;;;;;;;21.75;10.98;;;;;;;;;;5072526;28;20446;-58
2022/12/06 00:35:56;;;;;;;28.83;13.70;;;;;;;;;;5072116;28;20457;-58
2022/12/06 00:38:21;;;;;;;39.47;14.75;;;;;;;;;;5074729;28;20032;-57
2022/12/06 00:40:47;;;;;;;35.92;15.02;;;;;;;;;;5069139;28;20040;-58
2022/12/06 00:43:12;;;;;;;30.67;13.57;;;;;;;;;;5072151;28;20486;-57
2022/12/06 00:45:37;;;;;;;34.22;14.38;;;;;;;;;;5073694;28;20025;-58
2022/12/06 00:48:03;;;;;;;35.90;15.13;;;;;;;;;;5072725;28;20111;-58
2022/12/06 00:50:28;;;;;;;35.30;15.32;;;;;;;;;;5073150;28;20036;-58
2022/12/06 00:52:54;;;;;;;28.08;13.50;;;;;;;;;;5070437;28;20020;-57
2022/12/06 00:55:19;;;;;;;33.63;14.70;;;;;;;;;;5071798;28;20491;-57
2022/12/06 00:57:44;;;;;;;35.75;15.38;;;;;;;;;;5066954;28;20032;-58
2022/12/06 01:00:10;;;;;;;31.17;14.63;;;;;;;;;;5063735;28;20028;-57
2022/12/06 01:02:35;;;;;;;35.92;14.27;;;;;;;;;;5071341;28;20043;-57
2022/12/06 01:05:00;;;;;;;28.92;13.02;;;;;;;;;;5075344;28;20370;-58
2022/12/06 01:07:29;;;;;;;29.23;13.68;;;;;;;;;;5070997;28;20603;-58
2022/12/06 01:09:54;;;;;;;28.58;12.98;;;;;;;;;;5076485;28;20123;-58
2022/12/06 01:12:19;;;;;;;32.15;13.70;;;;;;;;;;5076208;28;20106;-58
2022/12/06 01:14:44;;;;;;;26.33;13.73;;;;;;;;;;5071177;28;20028;-56
2022/12/06 01:17:10;;;;;;;26.70;13.75;;;;;;;;;;5078912;28;20024;-56
2022/12/06 01:19:35;;;;;;;26.88;13.00;;;;;;;;;;5079404;28;20028;-56
2022/12/06 01:22:00;;;;;;;29.00;13.93;;;;;;;;;;5070242;28;20131;-55
2022/12/06 01:24:25;;;;;;;23.48;12.88;;;;;;;;;;5065011;28;20104;-56
2022/12/06 01:26:51;;;;;;;29.60;13.68;;;;;;;;;;5070634;28;20036;-56
2022/12/06 01:29:16;;;;;;;22.85;12.10;;;;;;;;;;5068449;28;20390;-57
2022/12/06 01:31:41;;;;;;;16.48;9.65;;;;;;;;;;5075959;28;20277;-56
2022/12/06 01:34:07;;;;;;;18.48;9.98;;;;;;;;;;5071218;28;20025;-56
2022/12/06 01:36:32;;;;;;;18.40;10.63;;;;;;;;;;5069339;28;20021;-56
2022/12/06 01:38:57;;;;;;;19.27;9.82;;;;;;;;;;5071846;28;20017;-56
2022/12/06 01:41:23;;;;;;;16.15;9.13;;;;;;;;;;5074523;28;20518;-57
2022/12/06 01:43:49;;;;;;;18.80;10.27;;;;;;;;;;5070269;28;20059;-56
2022/12/06 01:46:19;;;;;;;15.20;9.27;;;;;;;;;;5076671;28;20085;-56
2022/12/06 01:48:45;;;;;;;15.43;9.32;;;;;;;;;;5078380;28;20027;-58
2022/12/06 01:51:10;;;;;;;16.90;9.13;;;;;;;;;;5068437;28;20044;-57
2022/12/06 01:53:35;;;;;;;20.98;10.30;;;;;;;;;;5079371;28;20020;-57
2022/12/06 01:56:01;;;;;;;17.33;9.68;;;;;;;;;;5075803;28;20672;-57
2022/12/06 01:58:27;;;;;;;16.75;9.05;;;;;;;;;;5069646;28;20406;-57
2022/12/06 02:00:52;;;;;;;20.05;9.95;;;;;;;;;;5075794;28;20105;-56
2022/12/06 02:03:18;;;;;;;25.42;11.93;;;;;;;;;;5075960;28;20351;-57
2022/12/06 02:05:44;;;;;;;25.92;12.48;;;;;;;;;;5074442;28;20406;-56
2022/12/06 02:08:12;;;;;;;21.88;12.30;;;;;;;;;;5072407;28;20028;-56
2022/12/06 02:10:38;;;;;;;25.05;12.15;;;;;;;;;;5072061;28;20028;-57
2022/12/06 02:13:03;;;;;;;21.13;10.88;;;;;;;;;;5076867;28;20597;-57
2022/12/06 02:15:49;;;;;;;25.83;11.75;;;;;;;;;;5078898;28;20038;-56
2022/12/06 02:18:23;;;;;;;25.10;12.75;;;;;;;;;;5081207;28;20070;-57
2022/12/06 02:20:51;;;;;;;19.83;10.88;;;;;;;;;;5078257;28;20046;-55
2022/12/06 02:23:28;;;;;;;27.45;13.18;;;;;;;;;;5074054;28;20024;-57
2022/12/06 02:26:12;;;;;;;25.50;12.00;;;;;;;;;;5068567;28;20027;-56
2022/12/06 02:28:37;;;;;;;22.58;11.07;;;;;;;;;;5074484;28;20419;-57
2022/12/06 02:31:15;;;;;;;21.65;11.50;;;;;;;;;;5076247;28;20054;-56
2022/12/06 02:33:43;;;;;;;25.00;11.63;;;;;;;;;;5077472;28;20031;-56
2022/12/06 02:36:31;;;;;;;20.25;10.68;;;;;;;;;;5072158;28;20024;-55
2022/12/06 02:38:58;;;;;;;19.38;11.13;;;;;;;;;;5074615;28;20115;-57
2022/12/06 02:41:34;;;;;;;17.67;10.45;;;;;;;;;;5081572;28;20506;-56
2022/12/06 02:44:02;;;;;;;20.77;11.32;;;;;;;;;;5073159;28;20451;-57
2022/12/06 02:46:29;;;;;;;18.50;10.40;;;;;;;;;;5072716;28;20028;-56
2022/12/06 02:48:54;;;;;;;20.52;11.00;;;;;;;;;;5072790;28;20056;-56
2022/12/06 02:51:19;;;;;;;20.02;11.10;;;;;;;;;;5070395;28;20060;-57
2022/12/06 02:53:46;;;;;;;21.27;12.05;;;;;;;;;;5075574;28;20558;-56
2022/12/06 02:56:11;;;;;;;16.55;9.50;;;;;;;;;;5070831;28;20035;-56
2022/12/06 02:58:37;;;;;;;13.68;8.23;;;;;;;;;;5067763;28;20016;-57
2022/12/06 03:01:22;;;;;;;15.10;8.73;;;;;;;;;;5097614;28;20020;-56
2022/12/06 03:03:51;;;;;;;12.43;7.75;;;;;;;;;;5075724;28;20020;-56
2022/12/06 03:06:19;;;;;;;16.33;9.15;;;;;;;;;;5070416;28;20106;-57
2022/12/06 03:08:59;;;;;;;19.13;10.18;;;;;;;;;;5068850;28;20079;-56
2022/12/06 03:11:25;;;;;;;23.70;12.13;;;;;;;;;;5067622;28;20475;-57
2022/12/06 03:13:58;;;;;;;26.10;11.90;;;;;;;;;;5076766;28;20090;-57
2022/12/06 03:16:27;;;;;;;27.60;13.40;;;;;;;;;;5071782;28;20538;-56
2022/12/06 03:18:56;;;;;;;30.67;13.73;;;;;;;;;;5071885;28;20012;-55
2022/12/06 03:21:31;;;;;;;21.85;11.27;;;;;;;;;;5076403;28;20526;-56
2022/12/06 03:23:56;;;;;;;22.90;11.85;;;;;;;;;;5073254;28;20024;-57
2022/12/06 03:26:22;;;;;;;25.38;12.18;;;;;;;;;;5076203;28;20478;-55
2022/12/06 03:28:47;;;;;;;14.65;8.80;;;;;;;;;;5075752;28;20366;-56
2022/12/06 03:31:13;;;;;;;13.35;8.55;;;;;;;;;;5073850;28;20126;-57
2022/12/06 03:33:43;;;;;;;15.10;8.32;;;;;;;;;;5075778;28;20402;-56
2022/12/06 03:36:09;;;;;;;16.88;8.30;;;;;;;;;;5070853;28;20025;-56
2022/12/06 03:38:35;;;;;;;13.02;8.13;;;;;;;;;;5067302;28;20024;-57
2022/12/06 03:41:02;;;;;;;13.48;7.18;;;;;;;;;;5064504;28;20070;-57
2022/12/06 03:43:27;;;;;;;13.65;7.88;;;;;;;;;;5071912;28;20110;-56
2022/12/06 03:46:02;;;;;;;15.15;8.18;;;;;;;;;;5075913;28;20586;-57
2022/12/06 03:48:46;;;;;;;14.82;8.23;;;;;;;;;;5073655;28;20119;-57
2022/12/06 03:51:13;;;;;;;11.07;7.43;;;;;;;;;;5074687;28;20032;-56
2022/12/06 03:53:48;;;;;;;13.75;8.55;;;;;;;;;;5074636;28;20027;-56
2022/12/06 03:56:13;;;;;;;12.43;7.28;;;;;;;;;;5085504;28;20250;-56
2022/12/06 03:58:38;;;;;;;16.40;8.07;;;;;;;;;;5074469;28;20348;-56
2022/12/06 04:01:04;;;;;;;12.05;7.07;;;;;;;;;;5069434;28;20486;-58
2022/12/06 04:03:29;;;;;;;14.35;7.57;;;;;;;;;;5074488;28;20043;-56
2022/12/06 04:05:54;;;;;;;14.43;7.25;;;;;;;;;;5074545;28;20072;-57
2022/12/06 04:08:20;;;;;;;12.27;7.07;;;;;;;;;;5074409;28;20086;-57
2022/12/06 04:10:45;;;;;;;14.07;8.15;;;;;;;;;;5072134;28;20165;-58
2022/12/06 04:13:11;;;;;;;13.38;8.57;;;;;;;;;;5070140;28;20016;-59
2022/12/06 04:15:36;;;;;;;12.57;8.30;;;;;;;;;;5071149;28;20105;-56
2022/12/06 04:18:15;;;;;;;12.77;7.88;;;;;;;;;;5078130;28;20020;-56
2022/12/06 04:23:24;;;;;;;13.23;8.43;;;;;;;;;;5070081;28;20078;-59
2022/12/06 04:25:49;;;;;;;12.73;7.95;;;;;;;;;;5072630;28;20020;-55
2022/12/06 04:39:10;;;;;;;13.48;8.02;;;;;;;;;;5075002;28;20089;-56
2022/12/06 04:44:19;;;;;;;13.88;7.00;;;;;;;;;;5070392;28;20027;-57
2022/12/06 04:46:45;;;;;;;13.93;7.20;;;;;;;;;;5074063;28;20399;-56
2022/12/06 04:49:10;;;;;;;11.80;6.55;;;;;;;;;;5072657;28;20059;-56
2022/12/06 04:51:36;;;;;;;14.82;7.55;;;;;;;;;;5075654;28;20746;-58
2022/12/06 04:54:01;;;;;;;12.98;7.70;;;;;;;;;;5069084;28;20016;-57
2022/12/06 04:56:26;;;;;;;13.82;8.07;;;;;;;;;;5073928;28;20479;-57
2022/12/06 04:58:51;;;;;;;12.52;6.65;;;;;;;;;;5069716;28;20024;-57
2022/12/06 05:01:17;;;;;;;17.52;8.73;;;;;;;;;;5064124;28;20483;-56
2022/12/06 05:03:42;;;;;;;14.40;8.45;;;;;;;;;;5078558;28;20028;-56
2022/12/06 05:06:07;;;;;;;14.18;8.25;;;;;;;;;;5069228;28;20105;-55
2022/12/06 05:08:32;;;;;;;14.77;9.07;;;;;;;;;;5067714;28;20020;-56
2022/12/06 05:10:58;;;;;;;14.48;8.05;;;;;;;;;;5065361;28;20138;-59
2022/12/06 05:13:23;;;;;;;10.77;7.05;;;;;;;;;;5076457;28;20462;-58
2022/12/06 05:15:52;;;;;;;12.07;6.60;;;;;;;;;;5085218;28;20377;-59
2022/12/06 05:18:17;;;;;;;14.82;9.00;;;;;;;;;;5074166;28;20024;-58
2022/12/06 05:20:43;;;;;;;13.60;8.35;;;;;;;;;;5077549;28;20109;-58
2022/12/06 05:23:08;;;;;;;23.80;14.65;;;;;;;;;;5083561;28;20064;-57
2022/12/06 05:25:33;;;;;;;14.20;8.40;;;;;;;;;;5081723;28;20090;-60
2022/12/06 05:27:59;;;;;;;17.60;10.55;;;;;;;;;;5076493;28;20455;-57
2022/12/06 05:30:24;;;;;;;20.33;13.05;;;;;;;;;;5086734;28;20035;-59
2022/12/06 05:32:49;;;;;;;19.52;10.25;;;;;;;;;;5080914;28;20096;-59
2022/12/06 05:35:15;;;;;;;20.10;11.00;;;;;;;;;;5077604;28;20024;-58
2022/12/06 05:37:40;;;;;;;16.38;10.82;;;;;;;;;;5073936;28;20020;-58
2022/12/06 05:40:05;;;;;;;16.85;10.88;;;;;;;;;;5071441;28;20406;-58
2022/12/06 05:42:31;;;;;;;18.65;10.68;;;;;;;;;;5076184;28;20290;-58
2022/12/06 05:44:56;;;;;;;17.80;10.18;;;;;;;;;;5085334;28;20031;-57
2022/12/06 05:47:21;;;;;;;15.80;9.43;;;;;;;;;;5080132;28;20511;-57
2022/12/06 05:49:47;;;;;;;15.07;9.52;;;;;;;;;;5076900;28;20028;-58
2022/12/06 05:52:12;;;;;;;20.40;12.80;;;;;;;;;;5079910;28;20050;-58
2022/12/06 05:54:37;;;;;;;13.43;7.93;;;;;;;;;;5077747;28;20046;-58
2022/12/06 05:57:03;;;;;;;8.63;5.88;;;;;;;;;;5080151;28;20028;-58
2022/12/06 05:59:28;;;;;;;13.65;6.72;;;;;;;;;;5077047;28;20114;-58
2022/12/06 06:01:53;;;;;;;11.52;6.22;;;;;;;;;;5078515;28;20060;-58
2022/12/06 06:04:18;;;;;;;11.70;6.30;;;;;;;;;;5077592;28;20040;-58
2022/12/06 06:06:44;;;;;;;12.82;6.15;;;;;;;;;;5078185;28;20493;-58
2022/12/06 06:09:09;;;;;;;12.00;6.70;;;;;;;;;;5075649;28;20039;-57
2022/12/06 06:11:34;;;;;;;11.38;7.03;;;;;;;;;;5075378;28;20031;-58
2022/12/06 06:13:59;;;;;;;13.98;7.88;;;;;;;;;;5084978;28;20024;-57
2022/12/06 06:16:25;;;;;;;14.23;8.13;;;;;;;;;;5077630;28;20106;-58
2022/12/06 06:18:50;;;;;;;14.00;9.20;;;;;;;;;;5078107;28;20024;-57
2022/12/06 06:21:15;;;;;;;14.07;9.68;;;;;;;;;;5073259;28;20093;-57
2022/12/06 06:23:40;;;;;;;14.68;9.75;;;;;;;;;;5078988;28;20027;-57
2022/12/06 06:26:09;;;;;;;15.85;9.55;;;;;;;;;;5072814;28;20604;-56
2022/12/06 06:28:34;;;;;;;13.18;7.05;;;;;;;;;;5072787;28;20026;-57
2022/12/06 06:31:03;;;;;;;13.32;5.60;;;;;;;;;;5074691;28;20036;-57
2022/12/06 06:33:28;;;;;;;11.23;5.75;;;;;;;;;;5071067;28;20016;-57
2022/12/06 06:35:53;;;;;;;14.02;6.05;;;;;;;;;;5073412;28;20564;-58
2022/12/06 06:38:19;;;;;;;13.60;5.90;;;;;;;;;;5079241;28;20093;-56
2022/12/06 06:40:44;;;;;;;16.30;6.82;;;;;;;;;;5073721;28;20009;-58
2022/12/06 06:43:19;;;;;;;17.83;7.07;;;;;;;;;;5070190;28;20028;-58
2022/12/06 06:45:44;;;;;;;17.63;7.07;;;;;;;;;;5074641;28;20104;-57
2022/12/06 06:48:10;;;;;;;13.27;6.47;;;;;;;;;;5073242;28;20557;-58
2022/12/06 06:50:38;;;;;;;13.93;6.53;;;;;;;;;;5069580;28;20032;-57
2022/12/06 06:53:03;;;;;;;13.80;6.38;;;;;;;;;;5077352;28;20067;-57
2022/12/06 06:55:31;;;;;;;15.77;7.13;;;;;;;;;;5076744;28;20039;-57
2022/12/06 06:57:56;;;;;;;11.80;6.75;;;;;;;;;;5070928;28;20028;-57
2022/12/06 07:00:22;;;;;;;16.02;6.40;;;;;;;;;;5073160;28;20024;-57
2022/12/06 07:02:47;;;;;;;14.88;7.38;;;;;;;;;;5077183;28;20020;-58
2022/12/06 07:05:12;;;;;;;15.30;6.72;;;;;;;;;;5072041;28;20044;-58
2022/12/06 07:07:38;;;;;;;13.77;6.90;;;;;;;;;;5072797;28;20501;-58
2022/12/06 07:10:04;;;;;;;15.32;7.78;;;;;;;;;;5075980;28;20029;-58
2022/12/06 07:12:29;;;;;;;18.42;7.55;;;;;;;;;;5069883;28;20038;-57
2022/12/06 07:14:54;;;;;;;17.90;8.10;;;;;;;;;;5071270;28;20023;-58
2022/12/06 07:17:20;;;;;;;16.77;7.30;;;;;;;;;;5078933;28;20551;-57
2022/12/06 07:19:45;;;;;;;17.52;7.20;;;;;;;;;;5073447;28;20028;-58
2022/12/06 07:22:10;;;;;;;14.32;7.43;;;;;;;;;;5072037;28;20039;-58
2022/12/06 07:24:36;;;;;;;19.08;8.65;;;;;;;;;;5077632;28;20036;-59
2022/12/06 07:27:01;;;;;;;21.13;8.30;;;;;;;;;;5082546;28;20039;-56
2022/12/06 07:29:26;;;;;;;17.75;7.63;;;;;;;;;;5073330;28;20150;-59
2022/12/06 07:31:51;;;;;;;19.95;8.10;;;;;;;;;;5071547;28;20616;-57
2022/12/06 07:34:17;;;;;;;20.35;8.82;;;;;;;;;;5076895;28;20150;-56
2022/12/06 07:36:42;;;;;;;19.45;8.63;;;;;;;;;;5073983;28;20028;-58
2022/12/06 07:39:07;;;;;;;19.35;8.38;;;;;;;;;;5068841;28;20029;-57
2022/12/06 07:47:03;;;;;;;22.05;8.73;;;;;;;;;;5070246;28;20437;-58
2022/12/06 07:49:28;;;;;;;19.70;10.20;;;;;;;;;;5073214;28;20028;-56
2022/12/06 07:51:53;;;;;;;21.67;8.65;;;;;;;;;;5072408;28;20047;-57
2022/12/06 07:54:19;;;;;;;16.17;8.50;;;;;;;;;;5071872;28;20044;-58
2022/12/06 07:56:44;;;;;;;18.92;8.07;;;;;;;;;;5090891;28;20101;-58
2022/12/06 07:59:09;;;;;;;23.05;8.98;;;;;;;;;;5069168;28;20055;-59
2022/12/06 08:01:35;;;;;;;23.52;9.20;;;;;;;;;;5069122;28;20039;-58
2022/12/06 08:04:01;;;;;;;24.80;8.90;;;;;;;;;;5072658;28;20028;-58
2022/12/06 08:06:26;;;;;;;20.92;8.10;;;;;;;;;;5077396;28;20044;-58
2022/12/06 08:08:52;;;;;;;22.42;9.40;;;;;;;;;;5075459;28;20024;-58
2022/12/06 08:11:17;;;;;;;21.08;8.82;;;;;;;;;;5071515;28;20474;-58
2022/12/06 08:13:42;;;;;;;19.67;8.55;;;;;;;;;;5074773;28;20024;-58
2022/12/06 08:16:08;;;;;;;17.33;7.70;;;;;;;;;;5072591;28;20430;-58
2022/12/06 08:18:34;;;;;;;18.40;7.97;;;;;;;;;;5073990;28;20019;-58
2022/12/06 08:20:59;;;;;;;20.08;7.95;;;;;;;;;;5068754;28;20035;-58
2022/12/06 08:23:25;;;;;;;16.95;7.72;;;;;;;;;;5080772;28;20495;-58
2022/12/06 08:25:57;;;;;;;23.55;10.00;;;;;;;;;;5067738;28;20096;-58
2022/12/06 08:28:22;;;;;;;22.73;9.98;;;;;;;;;;5071097;28;20017;-58
2022/12/06 08:30:47;;;;;;;30.95;12.00;;;;;;;;;;5070074;28;20035;-58
2022/12/06 08:33:12;;;;;;;20.15;10.60;;;;;;;;;;5076379;28;20509;-58
2022/12/06 08:35:38;;;;;;;24.58;10.45;;;;;;;;;;5076639;28;20457;-59
2022/12/06 08:38:03;;;;;;;22.17;10.25;;;;;;;;;;5075705;28;20384;-58
2022/12/06 08:40:28;;;;;;;18.30;8.82;;;;;;;;;;5072199;28;20079;-57
2022/12/06 08:42:54;;;;;;;15.75;7.88;;;;;;;;;;5077548;28;20043;-58
2022/12/06 08:45:19;;;;;;;17.60;8.80;;;;;;;;;;5070418;28;20062;-58
2022/12/06 08:47:44;;;;;;;20.20;9.63;;;;;;;;;;5074584;28;20070;-59
2022/12/06 08:50:10;;;;;;;16.98;9.13;;;;;;;;;;5073895;28;20024;-58
2022/12/06 08:52:35;;;;;;;17.92;7.60;;;;;;;;;;5078236;28;20081;-58
2022/12/06 08:55:00;;;;;;;16.48;8.07;;;;;;;;;;5068604;28;20086;-58
2022/12/06 08:57:26;;;;;;;14.07;7.20;;;;;;;;;;5075968;28;20116;-58
2022/12/06 08:59:51;;;;;;;16.40;7.22;;;;;;;;;;5057438;28;20028;-58
2022/12/06 09:02:17;;;;;;;11.43;6.72;;;;;;;;;;5068683;28;20754;-60
2022/12/06 09:04:42;;;;;;;17.88;6.95;;;;;;;;;;5075067;28;20067;-58
2022/12/06 09:07:08;;;;;;;14.10;7.03;;;;;;;;;;5067781;28;20039;-58
2022/12/06 09:09:33;;;;;;;14.18;7.32;;;;;;;;;;5068641;28;20028;-58
2022/12/06 09:11:58;;;;;;;14.07;7.00;;;;;;;;;;5073339;28;20109;-58
2022/12/06 09:14:23;;;;;;;20.83;8.15;;;;;;;;;;5070682;28;20347;-57
2022/12/06 09:16:49;;;;;;;22.10;8.32;;;;;;;;;;5066607;28;20032;-57
2022/12/06 09:19:14;;;;;;;18.25;8.27;;;;;;;;;;5076377;28;20034;-59
2022/12/06 09:21:41;;;;;;;16.52;7.75;;;;;;;;;;5056794;28;20070;-58
2022/12/06 09:24:16;;;;;;;19.25;7.72;;;;;;;;;;5071445;28;20432;-58
2022/12/06 09:26:41;;;;;;;25.35;8.43;;;;;;;;;;5067761;28;20027;-58
2022/12/06 09:29:06;;;;;;;20.02;7.25;;;;;;;;;;5070310;28;20035;-57
2022/12/06 09:31:32;;;;;;;15.98;7.25;;;;;;;;;;5068582;28;20031;-57
2022/12/06 09:33:57;;;;;;;29.13;9.38;;;;;;;;;;5072223;28;20743;-57
2022/12/06 09:36:23;;;;;;;23.02;10.48;;;;;;;;;;5072895;28;20107;-57
2022/12/06 09:38:51;;;;;;;35.38;12.80;;;;;;;;;;5071595;28;20025;-57
2022/12/06 09:41:16;;;;;;;32.50;12.07;;;;;;;;;;5077851;28;20028;-57
2022/12/06 09:43:44;;;;;;;23.40;10.45;;;;;;;;;;5069389;28;20033;-56
2022/12/06 09:46:28;;;;;;;20.23;10.00;;;;;;;;;;5068212;28;20173;-57
2022/12/06 09:49:12;;;;;;;30.77;9.98;;;;;;;;;;5070229;28;20028;-57
2022/12/06 09:51:37;;;;;;;80.38;23.00;;;;;;;;;;5087459;28;20035;-57
2022/12/06 09:54:05;;;;;;;37.97;14.73;;;;;;;;;;5067461;28;20032;-59
2022/12/06 09:56:41;;;;;;;28.17;11.43;;;;;;;;;;5072114;28;20585;-57
2022/12/06 09:59:07;;;;;;;26.08;8.20;;;;;;;;;;5074933;28;20028;-57
2022/12/06 10:01:32;;;;;;;21.25;7.70;;;;;;;;;;5079606;28;20069;-57
2022/12/06 10:04:10;;;;;;;17.58;7.53;;;;;;;;;;5074445;28;20028;-57
2022/12/06 10:06:37;;;;;;;19.73;7.30;;;;;;;;;;5079712;28;20501;-57
2022/12/06 10:09:12;;;;;;;18.30;7.07;;;;;;;;;;5070706;28;20059;-56
2022/12/06 10:11:37;;;;;;;23.38;7.70;;;;;;;;;;5079707;28;20115;-56
2022/12/06 10:14:09;;;;;;;22.55;7.82;;;;;;;;;;5072508;28;20554;-57
2022/12/06 10:16:43;;;;;;;22.33;8.73;;;;;;;;;;5075013;28;20032;-56
2022/12/06 10:19:17;;;;;;;24.70;9.45;;;;;;;;;;5080494;28;20059;-56
2022/12/06 10:21:49;;;;;;;32.00;11.85;;;;;;;;;;5071518;28;20056;-57
2022/12/06 10:24:23;;;;;;;25.85;11.70;;;;;;;;;;5074485;28;20065;-57
2022/12/06 10:26:49;;;;;;;23.02;10.20;;;;;;;;;;5069636;28;20174;-56
2022/12/06 10:29:34;;;;;;;28.65;12.63;;;;;;;;;;5075217;28;20028;-57
2022/12/06 10:32:18;;;;;;;39.25;14.50;;;;;;;;;;5072788;28;20040;-56
2022/12/06 10:34:43;;;;;;;29.10;14.32;;;;;;;;;;5072165;28;20029;-57
2022/12/06 10:37:17;;;;;;;25.30;10.23;;;;;;;;;;5074622;28;20032;-56
2022/12/06 10:39:45;;;;;;;19.25;8.55;;;;;;;;;;5070404;28;20070;-57
2022/12/06 10:42:23;;;;;;;25.02;10.35;;;;;;;;;;5078748;28;20020;-56
2022/12/06 10:47:02;;;;;;;21.73;9.73;;;;;;;;;;5072644;28;20025;-58
2022/12/06 10:47:52;;;;;;;24.33;9.77;;;;;;;;;;5071120;28;20039;-57
2022/12/06 10:50:19;;;;;;;23.48;10.00;;;;;;;;;;5071435;28;20028;-58
2022/12/06 10:52:49;;;;;;;21.75;10.40;;;;;;;;;;5075265;28;20035;-57
2022/12/06 10:55:14;;;;;;;21.27;9.13;;;;;;;;;;5073678;28;20024;-58
2022/12/06 10:57:49;;;;;;;21.52;8.38;;;;;;;;;;5075157;28;20028;-59
2022/12/06 11:00:14;;;;;;;22.88;9.85;;;;;;;;;;5071928;28;20036;-58
2022/12/06 11:02:45;;;;;;;25.08;12.20;;;;;;;;;;5080945;28;20024;-57
2022/12/06 11:05:34;;;;;;;22.00;9.38;;;;;;;;;;5080709;28;20498;-57
2022/12/06 11:08:08;;;;;;;17.98;8.18;;;;;;;;;;5073266;28;20505;-57
2022/12/06 11:10:33;;;;;;;17.15;8.45;;;;;;;;;;5065597;28;20024;-57
2022/12/06 11:13:10;;;;;;;18.02;8.32;;;;;;;;;;5068472;28;20594;-57
2022/12/06 11:15:37;;;;;;;20.65;7.68;;;;;;;;;;5075509;28;20032;-56
2022/12/06 11:18:12;;;;;;;24.60;10.02;;;;;;;;;;5065060;28;20021;-57
2022/12/06 11:20:39;;;;;;;17.80;8.45;;;;;;;;;;5071796;28;20442;-57
2022/12/06 11:23:07;;;;;;;21.55;9.80;;;;;;;;;;5077610;28;20028;-57
2022/12/06 11:25:51;;;;;;;19.98;8.13;;;;;;;;;;5081092;28;20032;-58
2022/12/06 11:28:35;;;;;;;18.50;8.88;;;;;;;;;;5074764;28;20121;-57
2022/12/06 11:31:10;;;;;;;18.92;8.98;;;;;;;;;;5075923;28;20067;-58
2022/12/06 11:33:38;;;;;;;22.80;8.30;;;;;;;;;;5074600;28;20384;-58
2022/12/06 11:36:04;;;;;;;23.20;9.52;;;;;;;;;;5079449;28;20132;-58
2022/12/06 11:38:29;;;;;;;18.92;8.63;;;;;;;;;;5073146;28;20744;-58
2022/12/06 11:40:56;;;;;;;19.67;8.95;;;;;;;;;;5076462;28;20482;-58
2022/12/06 11:43:23;;;;;;;20.38;9.20;;;;;;;;;;5073401;28;20381;-58
2022/12/06 11:45:48;;;;;;;20.95;8.68;;;;;;;;;;5068803;28;20021;-58
2022/12/06 11:48:17;;;;;;;19.45;9.20;;;;;;;;;;5073869;28;20608;-58
2022/12/06 11:50:43;;;;;;;21.88;11.00;;;;;;;;;;5065556;28;20475;-58
2022/12/06 11:53:27;;;;;;;16.90;7.95;;;;;;;;;;5069227;28;20027;-58
2022/12/06 11:55:54;;;;;;;23.45;10.88;;;;;;;;;;5073879;28;20048;-57
2022/12/06 11:58:38;;;;;;;23.98;12.15;;;;;;;;;;5065243;28;20023;-57
2022/12/06 12:01:05;;;;;;;21.98;8.32;;;;;;;;;;5072005;28;20035;-59
2022/12/06 12:03:31;;;;;;;17.77;8.25;;;;;;;;;;5072893;28;20054;-57
2022/12/06 12:06:16;;;;;;;19.65;9.88;;;;;;;;;;5079946;28;20075;-57
2022/12/06 12:08:49;;;;;;;17.27;8.45;;;;;;;;;;5072186;28;20077;-58
2022/12/06 12:11:17;;;;;;;15.02;8.38;;;;;;;;;;5069012;28;20032;-58
2022/12/06 12:13:48;;;;;;;14.85;7.38;;;;;;;;;;5070411;28;20463;-59
2022/12/06 12:16:36;;;;;;;12.43;6.38;;;;;;;;;;5077981;28;20048;-58
2022/12/06 12:19:02;;;;;;;15.32;7.30;;;;;;;;;;5076850;28;20459;-58
2022/12/06 12:21:28;;;;;;;10.55;5.55;;;;;;;;;;5070098;28;20145;-58
2022/12/06 12:23:54;;;;;;;15.50;10.35;;;;;;;;;;5069909;28;20023;-58
2022/12/06 12:26:19;;;;;;;16.88;9.88;;;;;;;;;;5076537;28;20339;-58
2022/12/06 12:29:05;;;;;;;12.85;7.53;;;;;;;;;;5074550;28;20027;-58
2022/12/06 12:31:30;;;;;;;13.45;7.75;;;;;;;;;;5071867;28;20040;-58
2022/12/06 12:34:11;;;;;;;13.40;8.48;;;;;;;;;;5066892;28;20032;-58
2022/12/06 12:36:36;;;;;;;11.30;6.53;;;;;;;;;;5068204;28;20102;-57
2022/12/06 12:39:02;;;;;;;12.07;6.55;;;;;;;;;;5072851;28;20491;-58
2022/12/06 12:41:37;;;;;;;13.95;6.80;;;;;;;;;;5064403;28;20104;-58
2022/12/06 12:44:21;;;;;;;12.57;6.13;;;;;;;;;;5072718;28;20036;-59
2022/12/06 12:46:51;;;;;;;14.27;5.88;;;;;;;;;;5065884;28;20450;-58
2022/12/06 12:49:30;;;;;;;18.73;7.78;;;;;;;;;;5070940;28;20020;-58
2022/12/06 12:51:55;;;;;;;13.77;6.90;;;;;;;;;;5068151;28;20135;-59
2022/12/06 12:54:25;;;;;;;13.02;5.80;;;;;;;;;;5068993;28;20095;-58
2022/12/06 12:56:51;;;;;;;13.13;6.30;;;;;;;;;;5079806;28;20054;-59
2022/12/06 12:59:17;;;;;;;14.32;5.78;;;;;;;;;;5068487;28;20471;-59
2022/12/06 13:01:44;;;;;;;14.00;7.35;;;;;;;;;;5069627;28;20581;-58
2022/12/06 13:04:09;;;;;;;13.57;6.85;;;;;;;;;;5075227;28;20020;-58
2022/12/06 13:06:34;;;;;;;11.00;5.75;;;;;;;;;;5073705;28;20443;-57
2022/12/06 13:09:00;;;;;;;11.52;7.00;;;;;;;;;;5066743;28;20371;-58
2022/12/06 13:11:26;;;;;;;11.98;5.78;;;;;;;;;;5072351;28;20332;-58
2022/12/06 13:13:51;;;;;;;9.65;5.43;;;;;;;;;;5056180;28;20086;-58
2022/12/06 13:16:27;;;;;;;9.15;5.45;;;;;;;;;;5072367;28;20028;-57
2022/12/06 13:18:53;;;;;;;6.32;4.32;;;;;;;;;;5066637;28;20040;-57
2022/12/06 13:21:34;;;;;;;9.68;4.10;;;;;;;;;;5066266;28;20027;-57
2022/12/06 13:24:09;;;;;;;8.88;5.43;;;;;;;;;;5071255;28;20137;-57
2022/12/06 13:26:35;;;;;;;8.73;4.22;;;;;;;;;;5069312;28;20060;-58
2022/12/06 13:29:10;;;;;;;9.27;4.40;;;;;;;;;;5072033;28;20108;-57
2022/12/06 13:31:37;;;;;;;9.40;4.90;;;;;;;;;;5070180;28;20060;-57
2022/12/06 13:34:06;;;;;;;8.13;4.78;;;;;;;;;;5076953;28;20024;-58
2022/12/06 13:36:31;;;;;;;9.93;4.68;;;;;;;;;;5076959;28;20024;-58
2022/12/06 13:38:57;;;;;;;12.13;7.18;;;;;;;;;;5092472;28;20070;-58
2022/12/06 13:42:16;;;;;;;13.23;7.15;;;;;;;;;;5072294;28;20042;-57
2022/12/06 13:44:35;;;;;;;15.13;6.82;;;;;;;;;;5072932;28;20079;-57
2022/12/06 13:47:23;;;;;;;13.00;6.65;;;;;;;;;;5080439;28;20029;-56
2022/12/06 13:49:51;;;;;;;12.23;5.65;;;;;;;;;;5068269;28;20044;-58
2022/12/06 13:52:35;;;;;;;11.68;6.72;;;;;;;;;;5059457;28;20046;-57
2022/12/06 13:55:19;;;;;;;14.35;7.18;;;;;;;;;;5074334;28;20030;-57
2022/12/06 13:57:44;;;;;;;35.20;18.08;;;;;;;;;;5072987;28;20043;-57
2022/12/06 14:00:32;;;;;;;17.75;8.48;;;;;;;;;;5076280;28;20378;-57
2022/12/06 14:02:58;;;;;;;14.13;7.68;;;;;;;;;;5076313;28;20024;-57
2022/12/06 14:05:42;;;;;;;15.40;8.43;;;;;;;;;;5075634;28;20462;-57
2022/12/06 14:08:10;;;;;;;18.52;11.40;;;;;;;;;;5069720;28;20024;-59
2022/12/06 14:10:36;;;;;;;12.63;7.55;;;;;;;;;;5076377;28;20477;-56
2022/12/06 14:13:02;;;;;;;22.55;12.02;;;;;;;;;;5074813;28;20277;-59
2022/12/06 14:15:27;;;;;;;21.95;10.35;;;;;;;;;;5071215;28;20020;-59
2022/12/06 14:17:52;;;;;;;14.10;8.45;;;;;;;;;;5075057;28;20125;-57
2022/12/06 14:20:18;;;;;;;16.10;8.57;;;;;;;;;;5078953;28;20031;-59
2022/12/06 14:22:44;;;;;;;22.52;8.32;;;;;;;;;;5070100;28;20028;-59
2022/12/06 14:25:22;;;;;;;21.08;9.40;;;;;;;;;;5075567;28;20035;-58
2022/12/06 14:27:49;;;;;;;16.15;8.02;;;;;;;;;;5071289;28;20063;-57
2022/12/06 14:30:18;;;;;;;14.43;7.55;;;;;;;;;;5073079;28;20089;-57
2022/12/06 14:32:47;;;;;;;14.75;6.97;;;;;;;;;;5078038;28;20040;-58
2022/12/06 14:35:13;;;;;;;25.70;13.57;;;;;;;;;;5076182;28;20099;-58
2022/12/06 14:37:44;;;;;;;15.70;7.85;;;;;;;;;;5072354;28;20381;-58
2022/12/06 14:40:13;;;;;;;13.65;6.88;;;;;;;;;;5069154;28;20052;-57
2022/12/06 14:45:23;;;;;;;11.93;7.25;;;;;;;;;;5080780;28;20061;-57
2022/12/06 14:47:48;;;;;;;11.70;6.68;;;;;;;;;;5075971;28;20043;-57
2022/12/06 14:50:27;;;;;;;13.63;7.78;;;;;;;;;;5076509;28;20027;-57
2022/12/06 14:52:57;;;;;;;16.90;8.98;;;;;;;;;;5074898;28;20085;-57
2022/12/06 14:55:22;;;;;;;15.90;8.32;;;;;;;;;;5074215;28;20343;-57
2022/12/06 14:57:51;;;;;;;11.00;6.55;;;;;;;;;;5070552;28;20032;-57